Accueil
METAR-TAF:

METAR-TAF

Aéroports :

Aéroport d'Aurigny

Aurigny,

latitude: 49-43N, longitude: 002-12W, altitude: 71 m

Observation

Le bulletin a été fait il y a 10 heures et 48 minutes, à 18:20 UTC
Vent 7 kt de sud-est
Température 9°C
Humidité 87%
Pression 1025 hPa
Visibilité 10 km ou plus
pas de nuages en-dessous de 1500 mètres et pas de cumulonimbus.

METAR: EGJA 151820Z 14007KT CAVOK 09/07 Q1025

Heure: 05:08 (05:08 UTC)

Prévision

Le bulletin a été fait il y a 15 heures et 13 minutes, à 13:55 UTC
Prévision valable du 15 à 15 UTC au 15 à 19 UTC
Vent 11 kt de sud/sud-est
Visibilité 10 km ou plus
pas de nuages en-dessous de 1500 mètres et pas de cumulonimbus.

TAF: EGJA 151355Z 1515/1519 16011KT CAVOK

Observations et prévisions météorologiques de plus de 4000 aéroports (messages METAR et TAF).

Les stations disponibles sont représentées par des disques jaunes et rouges sur la carte.

Passer la souris dessus pour voir le nom de la station.

Cliquer dessus pour voir les observations et prévisions météorologiques.

Pour changer de carte: cliquez sur les boutons verts avec une croix noire pour zoomer, sur le bouton vert avec un tiret pour effectuer un zoom arrière, ou sur les flèches vertes pour les cartes adjacentes.


METAR-TAF: